Flight Briefing for CMB843

Departure Arrival
Naval Station Rota (LERT)
Click to view FAA NOTAMS
NAS Sigonella (LICZ)
Click to view FAA NOTAMS
Departure Time Arrival Time
N/A N/A
Aircraft Distance
B757-200SF 1021nm
Departure METAR Arrival METAR
LERT 230700Z VRB02KT CAVOK 20/12 Q1017 NOSIG LICZ 230655Z 28003KT 9999 SCT100 18/10 Q1017 RMK BKN BKN160 VIS MIN 9999 WIND THR28 25002KT WIND THR10 27002KT A3005 BLU
Suggested Route
MGA2Z MGA UN851 MHN UM603 ORKUM M603 ALG M732 CAR M871 LIBRO LIBRO2N


View recent IFR Routes data
Notes
USTRANSCOM CONTRACT FLIGHT

Charts and Procedures

Charts for LERT
No chart available
Charts for LICZ
No chart available

Windy.com Weather Map